Time;durP1;ratioP1;P1;durP2;ratioP2;P2;SDS_P1;SDS_P2;PMS_P1;PMS_P2;Temp;Humidity;BMP_temperature;BMP_pressure;BME280_temperature;BME280_humidity;BME280_pressure;Samples;Min_cycle;Max_cycle;Signal;HPM_P1;HPM_P2
2022/09/02 00:02:16;;;;;;;1.40;0.90;;;19.30;99.90;;;;;;4976568;28;20213;-53
2022/09/02 00:04:43;;;;;;;1.33;0.80;;;19.20;99.90;;;;;;4983852;28;20202;-53
2022/09/02 00:07:10;;;;;;;1.17;0.70;;;19.20;99.90;;;;;;4982637;28;20296;-53
2022/09/02 00:09:39;;;;;;;2.43;0.83;;;19.20;99.90;;;;;;4983653;28;20201;-53
2022/09/02 00:12:06;;;;;;;2.13;1.00;;;19.10;99.90;;;;;;4988389;28;20202;-54
2022/09/02 00:14:36;;;;;;;4.63;0.97;;;19.10;99.90;;;;;;4981079;28;20229;-53
2022/09/02 00:17:04;;;;;;;2.17;0.73;;;19.20;99.90;;;;;;5010799;28;20284;-53
2022/09/02 00:19:31;;;;;;;2.43;0.87;;;19.00;99.90;;;;;;4987094;28;20224;-53
2022/09/02 00:21:59;;;;;;;1.43;0.80;;;19.10;99.90;;;;;;4987831;28;20202;-53
2022/09/02 00:24:26;;;;;;;1.03;0.80;;;19.00;99.90;;;;;;4989914;28;20214;-53
2022/09/02 00:26:53;;;;;;;2.20;1.03;;;19.00;99.90;;;;;;4979091;28;20209;-53
2022/09/02 00:29:24;;;;;;;3.80;0.90;;;18.90;99.90;;;;;;4985602;28;20301;-51
2022/09/02 00:31:51;;;;;;;0.90;0.70;;;18.80;99.90;;;;;;4996168;28;20737;-50
2022/09/02 00:34:19;;;;;;;1.03;0.80;;;18.90;99.90;;;;;;4991179;28;20249;-49
2022/09/02 00:36:46;;;;;;;2.40;1.10;;;18.80;99.90;;;;;;4985961;28;20202;-52
2022/09/02 00:39:13;;;;;;;1.90;0.83;;;18.70;99.90;;;;;;4976987;28;20232;-49
2022/09/02 00:41:41;;;;;;;1.63;0.90;;;18.70;99.90;;;;;;4990683;28;20201;-48
2022/09/02 00:44:11;;;;;;;3.70;1.10;;;18.70;99.90;;;;;;5004558;28;20238;-50
2022/09/02 00:46:38;;;;;;;3.73;1.10;;;18.70;99.90;;;;;;4990002;28;20249;-51
2022/09/02 00:49:25;;;;;;;1.37;0.90;;;18.70;99.90;;;;;;4988924;28;20267;-51
2022/09/02 00:52:18;;;;;;;1.23;0.93;;;18.80;99.90;;;;;;4988455;28;20205;-49
2022/09/02 00:54:55;;;;;;;1.50;0.97;;;18.80;99.90;;;;;;4991449;28;20245;-48
2022/09/02 00:57:26;;;;;;;1.10;0.90;;;18.70;99.90;;;;;;4989579;28;21775;-49
2022/09/02 01:00:05;;;;;;;4.20;1.20;;;18.70;99.90;;;;;;4987999;28;20407;-50
2022/09/02 01:02:32;;;;;;;1.10;0.80;;;18.70;99.90;;;;;;4988154;28;20212;-50
2022/09/02 01:05:00;;;;;;;1.23;0.83;;;18.60;99.90;;;;;;4987513;28;20296;-50
2022/09/02 01:07:29;;;;;;;2.07;0.90;;;18.60;99.90;;;;;;4987022;28;20703;-51
2022/09/02 01:10:00;;;;;;;2.20;0.93;;;18.50;99.90;;;;;;4985808;28;20209;-49
2022/09/02 01:12:29;;;;;;;1.40;1.00;;;18.40;99.90;;;;;;4983705;28;20734;-50
2022/09/02 01:14:56;;;;;;;1.20;0.90;;;18.50;99.90;;;;;;4990056;28;20218;-50
2022/09/02 01:17:25;;;;;;;2.97;0.87;;;18.50;99.90;;;;;;4987622;28;20206;-50
2022/09/02 01:19:56;;;;;;;4.00;0.90;;;18.50;99.90;;;;;;4987026;28;20224;-50
2022/09/02 01:22:27;;;;;;;1.87;0.97;;;18.50;99.90;;;;;;4988355;28;20207;-51
2022/09/02 01:24:59;;;;;;;1.63;1.00;;;18.50;99.90;;;;;;4985978;28;20209;-51
2022/09/02 01:27:26;;;;;;;4.93;1.00;;;18.50;99.90;;;;;;4989202;28;20210;-51
2022/09/02 01:29:56;;;;;;;0.77;0.70;;;18.40;99.90;;;;;;4987797;28;20231;-49
2022/09/02 01:32:24;;;;;;;0.90;0.80;;;18.40;99.90;;;;;;4987242;28;20611;-50
2022/09/02 01:34:52;;;;;;;2.30;0.80;;;18.40;99.90;;;;;;4983915;28;20867;-51
2022/09/02 01:37:19;;;;;;;1.03;0.90;;;18.40;99.90;;;;;;4988180;28;20224;-49
2022/09/02 01:39:46;;;;;;;0.90;0.80;;;18.30;99.90;;;;;;4987133;28;20261;-51
2022/09/02 01:42:13;;;;;;;2.30;1.20;;;18.20;99.90;;;;;;4992704;28;20293;-52
2022/09/02 01:44:42;;;;;;;1.57;0.97;;;18.20;99.90;;;;;;4987996;28;20245;-50
2022/09/02 01:47:20;;;;;;;1.87;0.83;;;18.20;99.90;;;;;;4990624;28;20642;-49
2022/09/02 01:49:48;;;;;;;1.70;1.03;;;18.10;99.90;;;;;;4990174;28;20740;-49
2022/09/02 01:52:16;;;;;;;1.20;0.80;;;18.10;99.90;;;;;;4991963;28;20206;-50
2022/09/02 01:54:43;;;;;;;4.93;1.00;;;18.10;99.90;;;;;;4991200;28;20346;-51
2022/09/02 01:57:11;;;;;;;1.83;0.70;;;18.10;99.90;;;;;;4991231;28;20205;-51
2022/09/02 01:59:38;;;;;;;1.97;0.97;;;18.10;99.90;;;;;;4994875;28;20221;-50
2022/09/02 02:02:06;;;;;;;1.30;0.97;;;18.00;99.90;;;;;;4989077;28;20205;-49
2022/09/02 02:04:33;;;;;;;2.90;1.13;;;18.10;99.90;;;;;;4989261;28;20210;-49
2022/09/02 02:07:00;;;;;;;3.97;1.00;;;18.00;99.90;;;;;;4992001;28;20210;-50
2022/09/02 02:09:27;;;;;;;2.23;1.00;;;18.00;99.90;;;;;;4994163;28;20210;-51
2022/09/02 02:11:54;;;;;;;2.47;1.40;;;18.00;99.90;;;;;;4991922;28;20915;-51
2022/09/02 02:14:21;;;;;;;1.20;0.80;;;18.00;99.90;;;;;;4991139;28;20651;-50
2022/09/02 02:16:49;;;;;;;1.30;1.20;;;18.00;99.90;;;;;;4987450;28;20198;-52
2022/09/02 02:19:16;;;;;;;1.10;1.00;;;18.00;99.90;;;;;;4988614;28;20214;-50
2022/09/02 02:21:43;;;;;;;2.90;0.90;;;17.90;99.90;;;;;;4985278;28;20295;-50
2022/09/02 02:24:09;;;;;;;1.23;1.00;;;17.90;99.90;;;;;;4992093;28;20725;-50
2022/09/02 02:26:36;;;;;;;1.53;0.80;;;17.90;99.90;;;;;;4987245;28;20564;-51
2022/09/02 02:29:03;;;;;;;1.50;0.90;;;17.90;99.90;;;;;;4991993;28;20653;-52
2022/09/02 02:31:30;;;;;;;2.50;1.03;;;17.90;99.90;;;;;;4992984;28;20244;-51
2022/09/02 02:33:58;;;;;;;3.27;1.00;;;17.90;99.90;;;;;;4988901;28;20221;-50
2022/09/02 02:36:25;;;;;;;1.40;0.90;;;17.80;99.90;;;;;;4990378;28;20617;-49
2022/09/02 02:38:52;;;;;;;0.97;0.83;;;17.80;99.90;;;;;;4989452;28;20256;-51
2022/09/02 02:41:19;;;;;;;4.20;1.40;;;17.80;99.90;;;;;;4990123;28;20214;-50
2022/09/02 02:43:46;;;;;;;3.07;1.13;;;17.80;99.90;;;;;;4992157;28;20692;-49
2022/09/02 02:46:14;;;;;;;2.13;0.87;;;17.80;99.90;;;;;;4990309;28;20210;-50
2022/09/02 02:48:41;;;;;;;3.23;0.93;;;17.80;99.90;;;;;;4990745;28;20205;-52
2022/09/02 02:51:08;;;;;;;1.37;1.00;;;17.70;99.90;;;;;;4984398;28;20241;-50
2022/09/02 02:53:35;;;;;;;4.33;1.13;;;17.60;99.90;;;;;;4987233;28;20626;-49
2022/09/02 02:56:04;;;;;;;2.20;1.03;;;17.60;99.90;;;;;;4989195;28;20287;-52
2022/09/02 02:58:31;;;;;;;2.13;0.97;;;17.60;99.90;;;;;;4992566;28;20693;-50
2022/09/02 03:00:59;;;;;;;1.37;0.90;;;17.60;99.90;;;;;;4992848;28;20230;-50
2022/09/02 03:03:27;;;;;;;1.27;0.90;;;17.60;99.90;;;;;;4989737;28;20205;-51
2022/09/02 03:05:54;;;;;;;3.60;1.60;;;17.60;99.90;;;;;;4992499;28;20205;-51
2022/09/02 03:08:21;;;;;;;2.87;1.10;;;17.60;99.90;;;;;;4991879;28;20683;-50
2022/09/02 03:10:53;;;;;;;1.80;1.23;;;17.60;99.90;;;;;;4984926;28;20317;-49
2022/09/02 03:13:21;;;;;;;1.73;0.83;;;17.60;99.90;;;;;;4993471;28;20252;-51
2022/09/02 03:15:48;;;;;;;2.13;1.10;;;17.60;99.90;;;;;;4991597;28;20752;-49
2022/09/02 03:18:16;;;;;;;2.63;1.03;;;17.60;99.90;;;;;;4991520;28;20205;-50
2022/09/02 03:20:44;;;;;;;1.60;0.93;;;17.50;99.90;;;;;;4990281;28;20218;-50
2022/09/02 03:23:14;;;;;;;5.73;1.10;;;17.50;99.90;;;;;;4985956;28;20234;-50
2022/09/02 03:25:42;;;;;;;1.30;1.00;;;17.50;99.90;;;;;;4990112;28;20292;-51
2022/09/02 03:28:09;;;;;;;1.20;1.00;;;17.30;99.90;;;;;;4984339;28;20867;-49
2022/09/02 03:30:38;;;;;;;4.50;1.23;;;17.40;99.90;;;;;;4990746;28;20208;-50
2022/09/02 03:33:05;;;;;;;3.27;1.00;;;17.40;99.90;;;;;;4990509;28;20288;-48
2022/09/02 03:35:36;;;;;;;2.97;1.00;;;17.40;99.90;;;;;;4989938;28;20221;-49
2022/09/02 03:38:03;;;;;;;1.83;1.00;;;17.40;99.90;;;;;;4988019;28;20369;-52
2022/09/02 03:40:30;;;;;;;4.10;1.87;;;17.40;99.90;;;;;;4987514;28;20226;-48
2022/09/02 03:42:57;;;;;;;1.60;1.20;;;17.40;99.90;;;;;;4991579;28;20673;-49
2022/09/02 03:45:27;;;;;;;1.87;1.10;;;17.40;99.90;;;;;;4990831;28;20279;-50
2022/09/02 03:47:54;;;;;;;1.80;1.00;;;17.30;99.90;;;;;;4988044;28;20198;-50
2022/09/02 03:50:28;;;;;;;2.13;1.23;;;17.20;99.90;;;;;;4982928;28;20332;-50
2022/09/02 03:52:56;;;;;;;4.57;1.43;;;17.30;99.90;;;;;;4990853;28;20197;-48
2022/09/02 03:55:23;;;;;;;1.80;1.10;;;17.30;99.90;;;;;;4987395;28;20289;-50
2022/09/02 03:57:50;;;;;;;3.07;1.30;;;17.20;99.90;;;;;;4990513;28;20197;-49
2022/09/02 04:00:22;;;;;;;2.50;1.20;;;17.20;99.90;;;;;;4991307;28;20209;-50
2022/09/02 04:02:50;;;;;;;2.03;1.23;;;17.20;99.90;;;;;;4983971;28;20857;-49
2022/09/02 04:05:17;;;;;;;3.27;1.30;;;17.10;99.90;;;;;;4990717;28;20212;-50
2022/09/02 04:07:44;;;;;;;2.77;1.10;;;17.20;99.90;;;;;;4995011;28;20567;-49
2022/09/02 04:10:13;;;;;;;3.23;1.40;;;17.20;99.90;;;;;;4986746;28;20211;-52
2022/09/02 04:12:40;;;;;;;1.17;1.07;;;17.10;99.90;;;;;;4986588;28;20296;-53
2022/09/02 04:15:09;;;;;;;1.67;1.13;;;17.10;99.90;;;;;;4973743;28;20230;-51
2022/09/02 04:17:38;;;;;;;4.13;1.33;;;17.10;99.90;;;;;;4987309;28;20220;-52
2022/09/02 04:20:08;;;;;;;2.33;1.13;;;17.10;99.90;;;;;;4988925;28;20654;-50
2022/09/02 04:22:36;;;;;;;1.73;1.10;;;17.20;99.90;;;;;;4988421;28;20228;-51
2022/09/02 04:25:04;;;;;;;4.17;1.37;;;17.20;99.90;;;;;;4985808;28;20749;-52
2022/09/02 04:27:33;;;;;;;2.17;1.30;;;17.10;99.90;;;;;;4987960;28;20285;-50
2022/09/02 04:29:59;;;;;;;4.30;1.20;;;17.10;99.90;;;;;;4987512;28;20677;-50
2022/09/02 04:32:26;;;;;;;2.53;1.20;;;17.00;99.90;;;;;;4986098;28;20355;-49
2022/09/02 04:34:53;;;;;;;3.67;1.30;;;17.00;99.90;;;;;;4985062;28;20312;-50
2022/09/02 04:37:20;;;;;;;1.47;1.17;;;16.90;99.90;;;;;;4989214;28;20649;-52
2022/09/02 04:39:47;;;;;;;2.33;1.20;;;17.00;99.90;;;;;;4984337;28;20296;-50
2022/09/02 04:42:13;;;;;;;1.90;1.40;;;17.10;99.90;;;;;;4990280;28;20208;-51
2022/09/02 04:44:40;;;;;;;3.20;1.30;;;17.10;99.90;;;;;;4989602;28;20213;-50
2022/09/02 04:47:07;;;;;;;2.20;1.30;;;17.10;99.90;;;;;;4985069;28;20233;-51
2022/09/02 04:49:34;;;;;;;1.90;1.30;;;17.10;99.90;;;;;;4974901;28;20568;-49
2022/09/02 04:52:01;;;;;;;2.53;1.10;;;17.00;99.90;;;;;;4991033;28;20201;-52
2022/09/02 04:54:28;;;;;;;4.63;1.33;;;16.90;99.90;;;;;;4974756;28;20374;-50
2022/09/02 04:56:55;;;;;;;3.43;1.50;;;17.00;99.90;;;;;;4984347;28;20197;-51
2022/09/02 04:59:22;;;;;;;3.77;1.37;;;16.90;99.90;;;;;;4986669;28;20231;-50
2022/09/02 05:01:49;;;;;;;1.50;1.30;;;16.90;99.90;;;;;;4985170;28;20284;-51
2022/09/02 05:04:17;;;;;;;1.73;1.20;;;17.00;99.90;;;;;;4987602;28;20210;-50
2022/09/02 05:06:45;;;;;;;3.63;2.30;;;17.00;99.90;;;;;;4991415;28;20205;-51
2022/09/02 05:09:12;;;;;;;6.57;1.80;;;16.90;99.90;;;;;;4982494;28;20980;-50
2022/09/02 05:11:39;;;;;;;1.67;1.13;;;16.90;99.90;;;;;;4984930;28;20205;-51
2022/09/02 05:14:06;;;;;;;2.30;1.40;;;16.90;99.90;;;;;;4985023;28;21773;-49
2022/09/02 05:16:36;;;;;;;1.80;1.40;;;16.90;99.90;;;;;;4986040;28;20206;-51
2022/09/02 05:19:05;;;;;;;3.47;1.37;;;17.00;99.90;;;;;;4988499;28;20197;-52
2022/09/02 05:21:32;;;;;;;5.43;2.07;;;16.90;99.90;;;;;;4989346;28;20205;-49
2022/09/02 05:24:00;;;;;;;3.50;1.43;;;16.90;99.90;;;;;;5000094;28;20225;-51
2022/09/02 05:26:27;;;;;;;2.93;1.33;;;16.90;99.90;;;;;;4995858;28;20206;-50
2022/09/02 05:28:54;;;;;;;2.83;1.30;;;16.90;99.90;;;;;;4991176;28;20256;-51
2022/09/02 05:31:21;;;;;;;3.43;1.57;;;16.90;99.90;;;;;;4988994;28;20206;-49
2022/09/02 05:33:48;;;;;;;5.03;1.87;;;16.90;99.90;;;;;;4991021;28;20213;-50
2022/09/02 05:36:20;;;;;;;3.73;1.60;;;17.00;99.90;;;;;;4989065;28;20222;-55
2022/09/02 05:38:48;;;;;;;1.77;1.30;;;17.00;99.90;;;;;;4638465;28;10000113;-49
2022/09/02 05:41:21;;;;;;;4.40;1.70;;;17.00;99.90;;;;;;4983487;28;20264;-49
2022/09/02 05:43:50;;;;;;;2.50;1.50;;;17.00;99.90;;;;;;4988922;28;20609;-49
2022/09/02 05:46:21;;;;;;;7.20;1.77;;;17.00;99.90;;;;;;4989762;28;20599;-50
2022/09/02 05:51:41;;;;;;;2.73;1.43;;;17.10;99.90;;;;;;4989604;28;20674;-50
2022/09/02 05:54:10;;;;;;;6.23;3.00;;;17.10;99.90;;;;;;4986960;28;20261;-50
2022/09/02 05:56:40;;;;;;;3.07;2.47;;;17.20;99.90;;;;;;4983300;28;20217;-52
2022/09/02 05:59:11;;;;;;;3.43;1.87;;;17.20;99.90;;;;;;4983091;28;20206;-51
2022/09/02 06:01:38;;;;;;;6.60;1.80;;;17.20;99.90;;;;;;4991079;28;20210;-48
2022/09/02 06:04:05;;;;;;;3.43;1.87;;;17.20;99.90;;;;;;4991036;28;20198;-51
2022/09/02 06:06:37;;;;;;;3.50;1.87;;;17.20;99.90;;;;;;4986010;28;20228;-49
2022/09/02 06:09:09;;;;;;;1.87;1.67;;;17.20;99.90;;;;;;4990369;28;20658;-52
2022/09/02 06:11:38;;;;;;;2.57;1.70;;;17.20;99.90;;;;;;4991420;28;20201;-49
2022/09/02 06:14:06;;;;;;;4.87;1.43;;;17.20;99.90;;;;;;4997630;28;20561;-49
2022/09/02 06:16:34;;;;;;;4.67;1.73;;;17.30;99.90;;;;;;4990970;28;20205;-52
2022/09/02 06:19:04;;;;;;;3.07;1.90;;;17.30;99.90;;;;;;4994120;28;20237;-49
2022/09/02 06:21:32;;;;;;;5.53;1.70;;;17.30;99.90;;;;;;4991164;28;20225;-48
2022/09/02 06:23:59;;;;;;;4.73;1.90;;;17.30;99.90;;;;;;4989889;28;20244;-51
2022/09/02 06:26:26;;;;;;;5.50;1.90;;;17.30;99.90;;;;;;4989296;28;20610;-49
2022/09/02 06:28:53;;;;;;;3.17;1.60;;;17.30;99.90;;;;;;4992863;28;20698;-50
2022/09/02 06:31:22;;;;;;;5.40;1.80;;;17.40;99.90;;;;;;4986884;28;21332;-61
2022/09/02 06:33:53;;;;;;;2.70;1.70;;;17.40;99.90;;;;;;4993277;28;20223;-51
2022/09/02 06:36:21;;;;;;;5.37;1.53;;;17.40;99.90;;;;;;4981466;28;20228;-48
2022/09/02 06:38:55;;;;;;;4.47;2.00;;;17.50;99.90;;;;;;4987012;28;20305;-51
2022/09/02 06:41:30;;;;;;;3.90;1.80;;;17.40;99.90;;;;;;4988108;28;20209;-52
2022/09/02 06:43:59;;;;;;;4.80;2.27;;;17.40;99.90;;;;;;4989415;28;20259;-50
2022/09/02 06:46:36;;;;;;;2.33;1.70;;;17.50;99.90;;;;;;4987466;28;20223;-50
2022/09/02 06:49:04;;;;;;;4.80;2.00;;;17.50;99.90;;;;;;4982561;28;20197;-51
2022/09/02 06:51:34;;;;;;;1.77;1.63;;;17.60;99.90;;;;;;4977163;28;20265;-49
2022/09/02 06:54:05;;;;;;;4.90;1.93;;;17.80;99.90;;;;;;4988173;28;20225;-50
2022/09/02 06:56:33;;;;;;;6.10;1.50;;;17.70;99.90;;;;;;4986565;28;20220;-50
2022/09/02 06:59:01;;;;;;;5.37;1.90;;;17.80;99.90;;;;;;4985244;28;20264;-51
2022/09/02 07:01:31;;;;;;;4.70;2.00;;;17.70;99.90;;;;;;4991994;28;20674;-49
2022/09/02 07:06:47;;;;;;;4.27;1.90;;;17.80;99.90;;;;;;4989913;28;20206;-51
2022/09/02 07:09:17;;;;;;;2.03;1.73;;;17.80;99.90;;;;;;4992343;28;20666;-50
2022/09/02 07:11:46;;;;;;;4.47;1.70;;;17.90;99.90;;;;;;4997672;28;20677;-51
2022/09/02 07:14:15;;;;;;;4.40;1.60;;;17.90;99.90;;;;;;4999892;28;20237;-51
2022/09/02 07:16:50;;;;;;;4.70;1.80;;;18.00;99.90;;;;;;4997909;28;20758;-50
2022/09/02 07:19:19;;;;;;;4.63;2.13;;;18.00;99.90;;;;;;4994349;28;20749;-49
2022/09/02 07:21:48;;;;;;;5.47;1.90;;;18.00;99.90;;;;;;4998703;28;20233;-50
2022/09/02 07:24:16;;;;;;;2.67;1.90;;;18.00;99.90;;;;;;4994848;28;20216;-49
2022/09/02 07:26:43;;;;;;;4.63;2.00;;;18.10;99.90;;;;;;4998957;28;20202;-48
2022/09/02 07:29:11;;;;;;;3.40;1.73;;;18.10;99.90;;;;;;4997144;28;20202;-50
2022/09/02 07:31:42;;;;;;;3.80;1.87;;;18.20;99.90;;;;;;4995986;28;20212;-50
2022/09/02 07:34:09;;;;;;;3.23;1.80;;;18.20;99.90;;;;;;4999437;28;20570;-50
2022/09/02 07:36:37;;;;;;;3.73;2.13;;;18.10;99.90;;;;;;4998112;28;20216;-50
2022/09/02 07:39:06;;;;;;;2.60;1.77;;;18.10;99.90;;;;;;4995369;28;20595;-52
2022/09/02 07:41:34;;;;;;;9.27;2.20;;;18.30;99.90;;;;;;4999823;28;20201;-48
2022/09/02 07:44:03;;;;;;;3.13;2.20;;;18.30;99.90;;;;;;4996291;28;20196;-48
2022/09/02 07:46:31;;;;;;;4.83;1.90;;;18.40;99.90;;;;;;4996417;28;20213;-50
2022/09/02 07:48:59;;;;;;;4.37;2.13;;;18.40;99.90;;;;;;4998597;28;20290;-50
2022/09/02 07:51:26;;;;;;;4.33;2.30;;;18.40;99.90;;;;;;4996272;28;20701;-50
2022/09/02 07:53:56;;;;;;;5.70;1.93;;;18.40;99.90;;;;;;4997260;28;20208;-50
2022/09/02 07:56:23;;;;;;;4.80;1.77;;;18.50;99.90;;;;;;4996636;28;20271;-49
2022/09/02 07:58:50;;;;;;;3.03;1.83;;;18.50;99.90;;;;;;4996061;28;20198;-49
2022/09/02 08:01:17;;;;;;;3.70;2.10;;;18.60;99.90;;;;;;4994710;28;20774;-51
2022/09/02 08:03:49;;;;;;;3.93;2.20;;;18.60;99.90;;;;;;4997392;28;20713;-49
2022/09/02 08:06:17;;;;;;;4.67;2.27;;;18.60;99.90;;;;;;4994171;28;20210;-47
2022/09/02 08:08:59;;;;;;;3.80;2.17;;;18.70;99.90;;;;;;4996146;28;20221;-50
2022/09/02 08:11:26;;;;;;;3.93;2.00;;;18.70;99.90;;;;;;4995837;28;20255;-48
2022/09/02 08:13:53;;;;;;;4.17;2.30;;;18.80;99.90;;;;;;4995544;28;20209;-49
2022/09/02 08:16:20;;;;;;;3.37;2.13;;;18.90;99.90;;;;;;4996875;28;20213;-50
2022/09/02 08:18:47;;;;;;;7.47;2.53;;;19.00;99.90;;;;;;4994124;28;20626;-49
2022/09/02 08:21:14;;;;;;;4.93;2.20;;;19.00;99.90;;;;;;4997056;28;20198;-49
2022/09/02 08:23:41;;;;;;;4.37;2.40;;;19.00;99.90;;;;;;4985336;28;20201;-51
2022/09/02 08:26:10;;;;;;;3.80;2.50;;;19.10;99.90;;;;;;4984167;28;20667;-50
2022/09/02 08:28:37;;;;;;;5.00;2.60;;;19.20;99.90;;;;;;4989781;28;20237;-50
2022/09/02 08:31:06;;;;;;;7.53;2.60;;;19.20;99.90;;;;;;4985094;28;20236;-51
2022/09/02 08:33:33;;;;;;;3.40;2.40;;;19.30;99.90;;;;;;4987896;28;20652;-51
2022/09/02 08:36:10;;;;;;;7.80;2.90;;;19.50;99.90;;;;;;4987353;28;20233;-51
2022/09/02 08:38:37;;;;;;;6.77;2.80;;;19.50;99.90;;;;;;4988378;28;20647;-51
2022/09/02 08:41:22;;;;;;;5.13;2.63;;;19.60;99.90;;;;;;4988566;28;20205;-49
2022/09/02 08:43:51;;;;;;;5.47;2.40;;;19.70;99.90;;;;;;5003157;28;20289;-51
2022/09/02 08:46:24;;;;;;;5.23;2.53;;;19.80;99.90;;;;;;4985131;28;20228;-49
2022/09/02 08:49:30;;;;;;;4.43;2.80;;;20.00;99.90;;;;;;4991134;28;20266;-49
2022/09/02 08:52:00;;;;;;;6.73;2.73;;;20.00;99.90;;;;;;4996084;28;20274;-50
2022/09/02 08:54:47;;;;;;;8.20;2.97;;;20.10;99.90;;;;;;4987026;28;20237;-50
2022/09/02 08:57:14;;;;;;;3.27;2.67;;;20.00;99.90;;;;;;4988476;28;21812;-51
2022/09/02 08:59:42;;;;;;;3.27;2.70;;;20.20;99.90;;;;;;4984474;28;20648;-52
2022/09/02 09:02:28;;;;;;;5.97;3.17;;;20.30;99.90;;;;;;5007803;28;20249;-50
2022/09/02 09:05:00;;;;;;;7.00;3.47;;;20.30;99.90;;;;;;4990625;28;20193;-51
2022/09/02 09:07:48;;;;;;;5.43;2.80;;;20.50;99.90;;;;;;4987167;28;20202;-51
2022/09/02 09:10:28;;;;;;;3.83;3.03;;;20.50;99.90;;;;;;4986706;28;20712;-50
2022/09/02 09:13:20;;;;;;;7.23;3.07;;;20.60;99.90;;;;;;4991407;28;20343;-50
2022/09/02 09:16:02;;;;;;;5.37;2.77;;;20.50;99.90;;;;;;4996413;28;20737;-49
2022/09/02 09:18:52;;;;;;;6.20;2.90;;;20.60;99.90;;;;;;4990166;28;20205;-49
2022/09/02 09:21:19;;;;;;;5.00;3.37;;;20.80;99.90;;;;;;4986073;28;20967;-50
2022/09/02 09:23:47;;;;;;;5.90;3.00;;;20.80;99.90;;;;;;4976101;28;20661;-52
2022/09/02 09:26:26;;;;;;;4.20;2.83;;;20.90;99.90;;;;;;4973277;28;22072;-52
2022/09/02 09:28:54;;;;;;;9.60;3.47;;;20.90;99.90;;;;;;4983029;28;20205;-50
2022/09/02 09:31:31;;;;;;;4.23;3.03;;;20.90;99.90;;;;;;4966607;28;20292;-50
2022/09/02 09:34:02;;;;;;;4.43;3.33;;;21.00;99.90;;;;;;4959231;28;20673;-49
2022/09/02 09:36:41;;;;;;;4.20;3.13;;;21.20;99.90;;;;;;4973876;28;21028;-50
2022/09/02 09:39:28;;;;;;;11.33;5.13;;;21.30;99.90;;;;;;4968879;28;20219;-50
2022/09/02 09:42:01;;;;;;;11.57;4.47;;;21.30;99.90;;;;;;4971312;28;20292;-50
2022/09/02 09:44:37;;;;;;;4.03;2.90;;;21.40;99.90;;;;;;4988961;28;20564;-50
2022/09/02 09:47:10;;;;;;;6.67;4.30;;;21.50;99.90;;;;;;4983847;28;20647;-49
2022/09/02 09:49:44;;;;;;;3.67;2.83;;;21.60;99.90;;;;;;4975932;28;20703;-52
2022/09/02 09:52:10;;;;;;;4.50;3.63;;;21.60;99.90;;;;;;4986398;28;20289;-49
2022/09/02 09:54:37;;;;;;;5.30;3.00;;;21.60;99.90;;;;;;4988906;28;20256;-52
2022/09/02 09:57:20;;;;;;;6.03;3.10;;;21.60;99.90;;;;;;4992244;28;20214;-51
2022/09/02 09:59:55;;;;;;;5.03;3.03;;;21.80;99.90;;;;;;4990393;28;20198;-50
2022/09/02 10:02:25;;;;;;;4.23;3.13;;;21.80;99.90;;;;;;4988817;28;20202;-51
2022/09/02 10:04:55;;;;;;;7.17;3.23;;;21.80;99.90;;;;;;4992427;28;20300;-49
2022/09/02 10:07:38;;;;;;;5.80;3.10;;;21.80;99.90;;;;;;4995826;28;20292;-49
2022/09/02 10:10:16;;;;;;;5.70;3.00;;;21.90;99.90;;;;;;4990022;28;20563;-51
2022/09/02 10:12:44;;;;;;;10.53;3.40;;;22.00;99.90;;;;;;4989499;28;20693;-50
2022/09/02 10:15:11;;;;;;;7.60;3.57;;;22.10;99.90;;;;;;5003627;28;20645;-50
2022/09/02 10:17:39;;;;;;;7.50;3.47;;;22.20;99.90;;;;;;4992769;28;20599;-49
2022/09/02 10:20:21;;;;;;;4.20;3.00;;;22.40;99.90;;;;;;4994404;28;20225;-50
2022/09/02 10:22:59;;;;;;;8.47;3.93;;;22.60;99.90;;;;;;4992240;28;20232;-50
2022/09/02 10:25:35;;;;;;;6.00;3.50;;;22.60;99.90;;;;;;4996676;28;20250;-52
2022/09/02 10:28:20;;;;;;;11.00;4.87;;;22.70;99.90;;;;;;5000549;28;20248;-50
2022/09/02 10:30:56;;;;;;;6.03;3.77;;;22.80;99.90;;;;;;4999616;28;20217;-48
2022/09/02 10:33:56;;;;;;;5.67;3.43;;;22.80;99.90;;;;;;4999279;28;20201;-51
2022/09/02 10:36:54;;;;;;;9.37;4.30;;;22.90;99.90;;;;;;4969035;28;20323;-51
2022/09/02 10:39:42;;;;;;;6.50;3.57;;;22.90;99.90;;;;;;4995945;28;20331;-49
2022/09/02 10:42:31;;;;;;;6.07;2.97;;;23.10;99.90;;;;;;4989563;28;20272;-49
2022/09/02 10:45:29;;;;;;;7.80;3.20;;;23.30;99.90;;;;;;4995193;28;20301;-51
2022/09/02 10:48:06;;;;;;;10.00;3.70;;;23.50;99.90;;;;;;4993722;28;20550;-55
2022/09/02 10:50:36;;;;;;;7.27;3.37;;;23.50;99.90;;;;;;4997388;28;20609;-54
2022/09/02 10:53:03;;;;;;;6.67;3.23;;;23.60;99.90;;;;;;4998204;28;20216;-54
2022/09/02 10:55:53;;;;;;;6.20;3.20;;;23.90;99.90;;;;;;4995775;28;20228;-53
2022/09/02 10:58:32;;;;;;;5.40;3.07;;;24.00;99.90;;;;;;4999569;28;20427;-53
2022/09/02 11:00:59;;;;;;;4.37;2.97;;;24.20;99.90;;;;;;4993489;28;20202;-52
2022/09/02 11:03:46;;;;;;;5.50;3.63;;;24.60;99.90;;;;;;4993357;28;20235;-52
2022/09/02 11:06:24;;;;;;;4.70;2.70;;;24.40;99.90;;;;;;4999303;28;20254;-52
2022/09/02 11:09:28;;;;;;;6.60;3.50;;;24.60;99.90;;;;;;4991774;28;20208;-53
2022/09/02 11:12:06;;;;;;;6.07;3.93;;;24.80;99.90;;;;;;4998354;28;20236;-52
2022/09/02 11:14:43;;;;;;;5.73;3.70;;;25.10;99.90;;;;;;4995906;28;20214;-53
2022/09/02 11:17:20;;;;;;;6.33;3.73;;;25.20;99.90;;;;;;4993074;28;20548;-53
2022/09/02 11:20:09;;;;;;;8.50;3.40;;;25.20;99.90;;;;;;4993730;28;20752;-54
2022/09/02 11:23:23;;;;;;;9.60;3.63;;;25.30;99.90;;;;;;4991145;28;20333;-53
2022/09/02 11:26:05;;;;;;;3.50;2.17;;;25.50;99.90;;;;;;4980931;28;20202;-53
2022/09/02 11:28:42;;;;;;;4.50;2.30;;;25.70;99.90;;;;;;4996730;28;20275;-51
2022/09/02 11:31:18;;;;;;;6.47;2.28;;;25.60;99.90;;;;;;4991612;28;20822;-52
2022/09/02 11:33:49;;;;;;;4.03;2.45;;;26.10;99.90;;;;;;4994375;28;20232;-53
2022/09/02 11:36:17;;;;;;;4.37;2.17;;;26.30;99.90;;;;;;4999114;28;20214;-52
2022/09/02 11:39:16;;;;;;;2.80;1.67;;;26.40;99.90;;;;;;4993612;28;20671;-53
2022/09/02 11:42:17;;;;;;;3.08;1.63;;;26.50;99.90;;;;;;4934952;28;20654;-53
2022/09/02 11:44:53;;;;;;;3.95;2.00;;;26.60;99.90;;;;;;4983336;28;20209;-54
2022/09/02 11:47:35;;;;;;;4.22;1.30;;;26.70;99.90;;;;;;4984296;28;20217;-54
2022/09/02 11:50:08;;;;;;;2.80;1.38;;;26.50;99.90;;;;;;4983548;28;20611;-54
2022/09/02 11:52:57;;;;;;;2.80;1.80;;;26.40;99.90;;;;;;4985826;28;20205;-52
2022/09/02 11:55:38;;;;;;;2.50;1.73;;;26.70;99.90;;;;;;4985980;28;20233;-53
2022/09/02 11:58:05;;;;;;;2.88;2.00;;;27.00;99.90;;;;;;4977768;28;20209;-54
2022/09/02 12:00:35;;;;;;;4.05;2.30;;;27.10;99.90;;;;;;4983505;28;20210;-54
2022/09/02 12:03:05;;;;;;;3.83;1.70;;;27.20;99.90;;;;;;4980870;28;20766;-53
2022/09/02 12:06:17;;;;;;;1.85;1.48;;;27.30;99.90;;;;;;4988399;28;20709;-53
2022/09/02 12:08:45;;;;;;;3.90;2.10;;;28.00;99.90;;;;;;4986190;28;20209;-53
2022/09/02 12:11:36;;;;;;;3.77;2.13;;;28.50;99.90;;;;;;4985551;28;20241;-53
2022/09/02 12:14:05;;;;;;;4.27;1.80;;;28.10;99.90;;;;;;4986029;28;20248;-52
2022/09/02 12:16:57;;;;;;;3.83;1.37;;;28.60;99.90;;;;;;4983416;28;20224;-53
2022/09/02 12:19:27;;;;;;;3.10;1.60;;;29.70;99.90;;;;;;4987621;28;20202;-53
2022/09/02 12:22:15;;;;;;;1.70;1.30;;;29.00;99.90;;;;;;4983902;28;20661;-54
2022/09/02 12:25:00;;;;;;;8.30;1.53;;;28.40;99.90;;;;;;4986072;28;20261;-53
2022/09/02 12:27:36;;;;;;;3.17;1.60;;;27.80;99.90;;;;;;4982052;28;20634;-55
2022/09/02 12:30:08;;;;;;;4.00;1.70;;;29.10;99.90;;;;;;4973047;28;20211;-53
2022/09/02 12:32:49;;;;;;;2.17;1.27;;;29.20;99.90;;;;;;4976025;28;20572;-55
2022/09/02 12:35:57;;;;;;;2.78;1.60;;;30.20;99.90;;;;;;4986539;28;20201;-55
2022/09/02 12:38:40;;;;;;;2.63;1.45;;;30.30;99.90;;;;;;4982786;28;20206;-54
2022/09/02 12:41:12;;;;;;;4.55;1.95;;;30.20;99.90;;;;;;4981621;28;20392;-52
2022/09/02 12:43:46;;;;;;;3.38;2.50;;;29.40;99.90;;;;;;4978741;28;20260;-54
2022/09/02 12:46:35;;;;;;;6.75;1.90;;;28.00;99.90;;;;;;4979868;28;20655;-53
2022/09/02 12:49:28;;;;;;;2.58;1.70;;;27.70;99.90;;;;;;4981902;28;20266;-53
2022/09/02 12:52:00;;;;;;;3.30;1.77;;;29.40;99.90;;;;;;4984490;28;20998;-55
2022/09/02 12:54:37;;;;;;;3.25;2.20;;;29.00;99.90;;;;;;4979541;28;20867;-55
2022/09/02 12:57:05;;;;;;;2.80;2.15;;;27.90;99.90;;;;;;4983456;28;20318;-53
2022/09/02 12:59:38;;;;;;;1.88;1.50;;;27.60;99.90;;;;;;4982789;28;20245;-51
2022/09/02 13:02:39;;;;;;;5.38;1.83;;;26.90;99.90;;;;;;4979338;28;20666;-53
2022/09/02 13:05:37;;;;;;;4.60;1.92;;;27.00;99.90;;;;;;4976003;28;20329;-54
2022/09/02 13:08:10;;;;;;;2.90;2.60;;;26.90;99.90;;;;;;4971836;28;20289;-54
2022/09/02 13:10:49;;;;;;;4.82;1.70;;;27.10;99.90;;;;;;4979451;28;20256;-52
2022/09/02 13:13:41;;;;;;;7.43;3.20;;;27.20;99.90;;;;;;4984236;28;20202;-51
2022/09/02 13:16:26;;;;;;;5.00;1.50;;;26.90;99.90;;;;;;4982640;28;20210;-52
2022/09/02 13:19:41;;;;;;;3.42;1.50;;;27.30;99.90;;;;;;4978925;28;21460;-54